createdAt,value
2023-04-06T00:01:09.832Z,44.70
2023-04-06T00:03:37.101Z,46.08
2023-04-06T00:06:06.013Z,44.88
2023-04-06T00:08:32.788Z,45.55
2023-04-06T00:10:59.941Z,46.67
2023-04-06T00:13:26.646Z,47.75
2023-04-06T00:15:55.979Z,48.72
2023-04-06T00:18:24.281Z,49.03
2023-04-06T00:20:52.060Z,48.28
2023-04-06T00:23:19.681Z,47.28
2023-04-06T00:25:46.798Z,47.08
2023-04-06T00:28:13.507Z,46.67
2023-04-06T00:30:42.346Z,45.38
2023-04-06T00:33:09.567Z,44.50
2023-04-06T00:35:36.639Z,44.53
2023-04-06T00:38:03.918Z,43.80
2023-04-06T00:40:32.265Z,47.33
2023-04-06T00:42:59.385Z,48.55
2023-04-06T00:45:26.158Z,46.53
2023-04-06T00:47:53.419Z,47.80
2023-04-06T00:50:21.752Z,49.17
2023-04-06T00:52:49.068Z,52.22
2023-04-06T00:55:16.456Z,48.90
2023-04-06T00:57:43.468Z,51.78
2023-04-06T01:00:11.181Z,50.67
2023-04-06T01:02:38.502Z,49.72
2023-04-06T01:05:06.479Z,51.95
2023-04-06T01:07:33.310Z,50.72
2023-04-06T01:10:00.542Z,53.63
2023-04-06T01:12:27.778Z,51.83
2023-04-06T01:14:55.144Z,52.58
2023-04-06T01:17:23.191Z,51.30
2023-04-06T01:19:52.673Z,52.15
2023-04-06T01:22:20.804Z,55.58
2023-04-06T01:24:47.830Z,51.75
2023-04-06T01:27:15.129Z,55.05
2023-04-06T01:29:42.681Z,51.85
2023-04-06T01:32:10.146Z,54.97
2023-04-06T01:34:37.205Z,56.20
2023-04-06T01:37:04.236Z,53.53
2023-04-06T01:39:33.685Z,53.15
2023-04-06T01:42:09.639Z,56.38
2023-04-06T01:44:36.915Z,53.78
2023-04-06T01:47:03.783Z,56.78
2023-04-06T01:49:31.145Z,52.08
2023-04-06T01:51:57.970Z,53.03
2023-04-06T01:54:25.034Z,57.33
2023-04-06T01:56:53.943Z,56.38
2023-04-06T01:59:20.897Z,50.83
2023-04-06T02:01:47.770Z,50.67
2023-04-06T02:04:16.269Z,51.78
2023-04-06T02:06:45.171Z,53.35
2023-04-06T02:09:12.585Z,54.83
2023-04-06T02:11:39.360Z,54.28
2023-04-06T02:14:06.682Z,55.40
2023-04-06T02:16:38.354Z,56.38
2023-04-06T02:19:05.635Z,61.40
2023-04-06T02:21:33.018Z,57.97
2023-04-06T02:24:02.124Z,58.40
2023-04-06T02:26:29.068Z,60.90
2023-04-06T02:28:57.605Z,55.13
2023-04-06T02:31:24.874Z,57.80
2023-04-06T02:33:52.345Z,58.85
2023-04-06T02:36:19.708Z,57.92
2023-04-06T02:38:47.158Z,56.17
2023-04-06T02:41:13.993Z,57.60
2023-04-06T02:43:41.323Z,59.53
2023-04-06T02:46:09.281Z,61.33
2023-04-06T02:48:38.077Z,56.05
2023-04-06T02:51:05.577Z,62.08
2023-04-06T02:53:35.944Z,62.28
2023-04-06T02:56:04.800Z,58.63
2023-04-06T02:58:32.324Z,64.05
2023-04-06T03:01:01.186Z,59.05
2023-04-06T03:03:28.537Z,66.00
2023-04-06T03:05:57.227Z,60.72
2023-04-06T03:08:26.162Z,61.50
2023-04-06T03:10:53.168Z,65.82
2023-04-06T03:13:20.070Z,66.05
2023-04-06T03:15:49.601Z,60.78
2023-04-06T03:18:17.365Z,60.05
2023-04-06T03:20:44.643Z,63.70
2023-04-06T03:23:13.751Z,61.20
2023-04-06T03:25:41.634Z,61.85
2023-04-06T03:28:08.343Z,58.17
2023-04-06T03:30:37.177Z,64.55
2023-04-06T03:33:06.185Z,62.25
2023-04-06T03:35:33.780Z,63.05
2023-04-06T03:38:02.255Z,65.78
2023-04-06T03:40:29.529Z,66.35
2023-04-06T03:42:56.579Z,67.13
2023-04-06T03:45:24.425Z,68.20
2023-04-06T03:47:54.032Z,66.75
2023-04-06T03:50:20.754Z,67.93
2023-04-06T03:52:49.733Z,61.53
2023-04-06T03:55:17.466Z,62.65
2023-04-06T03:57:44.203Z,58.10
2023-04-06T04:00:13.315Z,61.53
2023-04-06T04:02:41.461Z,57.53
2023-04-06T04:05:08.568Z,61.47
2023-04-06T04:07:36.476Z,59.33
2023-04-06T04:10:03.786Z,62.85
2023-04-06T04:12:30.601Z,65.45
2023-04-06T04:15:00.119Z,64.72
2023-04-06T04:17:27.143Z,57.55
2023-04-06T04:19:54.184Z,56.20
2023-04-06T04:22:22.484Z,56.20
2023-04-06T04:24:49.604Z,58.65
2023-04-06T04:27:16.726Z,58.58
2023-04-06T04:29:44.957Z,59.88
2023-04-06T04:32:12.041Z,61.30
2023-04-06T04:34:41.268Z,62.70
2023-04-06T04:37:09.543Z,63.83
2023-04-06T04:39:36.226Z,70.55
2023-04-06T04:42:10.719Z,72.30
2023-04-06T04:44:37.444Z,64.93
2023-04-06T04:47:04.936Z,66.95
2023-04-06T04:49:32.871Z,65.75
2023-04-06T04:51:59.957Z,65.95
2023-04-06T04:54:27.873Z,69.47
2023-04-06T04:56:55.069Z,72.10
2023-04-06T04:59:22.020Z,71.05
2023-04-06T05:01:54.779Z,68.90
2023-04-06T05:04:24.934Z,71.10
2023-04-06T05:06:51.833Z,72.50
2023-04-06T05:09:19.194Z,68.05
2023-04-06T05:11:46.090Z,68.10
2023-04-06T05:14:14.806Z,62.60
2023-04-06T05:16:51.931Z,63.38
2023-04-06T05:19:19.454Z,69.30
2023-04-06T05:21:46.678Z,64.40
2023-04-06T05:24:21.816Z,60.88
2023-04-06T05:26:50.271Z,64.03
2023-04-06T05:29:18.297Z,56.10
2023-04-06T05:31:46.656Z,53.45
2023-04-06T05:34:14.021Z,50.10
2023-04-06T05:36:42.265Z,48.80
2023-04-06T05:39:09.235Z,47.15
2023-04-06T05:41:37.443Z,46.47
2023-04-06T05:44:04.496Z,46.58
2023-04-06T05:46:31.540Z,43.17
2023-04-06T05:48:58.822Z,40.97
2023-04-06T05:51:26.092Z,41.45
2023-04-06T05:53:53.249Z,39.63
2023-04-06T05:56:22.918Z,38.00
2023-04-06T05:58:49.993Z,38.33
2023-04-06T06:01:16.836Z,37.08
2023-04-06T06:03:43.616Z,32.72
2023-04-06T06:06:13.221Z,30.42
2023-04-06T06:08:40.352Z,33.78
2023-04-06T06:11:07.738Z,32.08
2023-04-06T06:13:34.548Z,33.13
2023-04-06T06:16:01.339Z,30.95
2023-04-06T06:18:28.307Z,29.58
2023-04-06T06:20:56.118Z,28.95
2023-04-06T06:23:23.302Z,28.55
2023-04-06T06:25:50.402Z,25.23
2023-04-06T06:28:17.471Z,28.17
2023-04-06T06:30:44.964Z,26.17
2023-04-06T06:33:11.941Z,27.10
2023-04-06T06:35:39.050Z,28.23
2023-04-06T06:38:06.354Z,26.55
2023-04-06T06:40:34.161Z,26.83
2023-04-06T06:43:01.014Z,29.33
2023-04-06T06:45:27.868Z,28.08
2023-04-06T06:47:55.680Z,27.50
2023-04-06T06:50:23.037Z,26.92
2023-04-06T06:52:49.768Z,26.27
2023-04-06T06:55:16.589Z,27.77
2023-04-06T06:57:43.572Z,27.13
2023-04-06T07:00:13.289Z,28.08
2023-04-06T07:02:40.869Z,25.85
2023-04-06T07:05:19.944Z,27.35
2023-04-06T07:07:54.407Z,27.40
2023-04-06T07:10:21.839Z,28.37
2023-04-06T07:12:49.042Z,27.40
2023-04-06T07:15:16.383Z,26.00
2023-04-06T07:17:44.529Z,24.13
2023-04-06T07:20:12.335Z,25.37
2023-04-06T07:22:40.034Z,27.30
2023-04-06T07:25:07.704Z,25.37
2023-04-06T07:27:34.467Z,23.90
2023-04-06T07:30:01.630Z,25.80
2023-04-06T07:32:28.375Z,25.37
2023-04-06T07:34:55.483Z,25.50
2023-04-06T07:37:23.255Z,24.63
2023-04-06T07:39:50.304Z,21.20
2023-04-06T07:42:17.459Z,22.07
2023-04-06T07:44:44.160Z,21.80
2023-04-06T07:47:11.288Z,20.10
2023-04-06T07:49:38.052Z,22.43
2023-04-06T07:52:06.409Z,22.40
2023-04-06T07:54:33.282Z,22.47
2023-04-06T07:57:00.391Z,22.13
2023-04-06T07:59:28.216Z,23.17
2023-04-06T08:01:54.979Z,20.70
2023-04-06T08:04:21.740Z,18.23
2023-04-06T08:06:48.819Z,18.60
2023-04-06T08:09:15.595Z,18.73
2023-04-06T08:11:42.301Z,17.33
2023-04-06T08:14:09.702Z,15.70
2023-04-06T08:16:38.967Z,13.87
2023-04-06T08:19:08.582Z,15.40
2023-04-06T08:21:35.367Z,13.83
2023-04-06T08:24:03.056Z,12.50
2023-04-06T08:26:29.870Z,10.37
2023-04-06T08:28:57.615Z,13.87
2023-04-06T08:31:24.807Z,14.00
2023-04-06T08:33:52.065Z,15.90
2023-04-06T08:36:24.622Z,14.93
2023-04-06T08:38:51.845Z,11.47
2023-04-06T08:41:19.340Z,10.93
2023-04-06T08:44:05.464Z,9.40
2023-04-06T08:46:33.040Z,9.67
2023-04-06T08:49:02.451Z,11.50
2023-04-06T08:51:31.730Z,14.30
2023-04-06T08:54:00.155Z,11.03
2023-04-06T08:56:29.656Z,11.70
2023-04-06T08:58:57.066Z,10.23
2023-04-06T09:01:31.760Z,10.43
2023-04-06T09:04:08.828Z,9.30
2023-04-06T09:06:38.856Z,8.27
2023-04-06T09:09:07.759Z,8.93
2023-04-06T09:11:50.981Z,9.00
2023-04-06T09:14:33.614Z,8.40
2023-04-06T09:17:02.827Z,8.57
2023-04-06T09:19:29.628Z,9.82
2023-04-06T09:22:08.070Z,9.05
2023-04-06T09:24:48.155Z,9.27
2023-04-06T09:27:16.639Z,9.75
2023-04-06T09:29:44.926Z,10.15
2023-04-06T09:32:13.656Z,10.88
2023-04-06T09:34:40.702Z,9.85
2023-04-06T09:37:19.314Z,8.00
2023-04-06T09:39:46.644Z,10.38
2023-04-06T09:42:26.624Z,8.20
2023-04-06T09:44:53.797Z,6.03
2023-04-06T09:47:22.115Z,6.80
2023-04-06T09:49:51.943Z,6.60
2023-04-06T09:52:21.045Z,7.93
2023-04-06T09:54:51.069Z,7.22
2023-04-06T09:57:33.443Z,7.07
2023-04-06T10:00:12.927Z,7.38
2023-04-06T10:03:03.184Z,6.60
2023-04-06T10:05:51.277Z,6.43
2023-04-06T10:08:20.834Z,6.15
2023-04-06T10:10:48.154Z,5.95
2023-04-06T10:13:15.081Z,7.45
2023-04-06T10:15:44.320Z,6.53
2023-04-06T10:18:11.947Z,6.57
2023-04-06T10:21:10.024Z,6.00
2023-04-06T10:23:44.749Z,6.95
2023-04-06T10:26:17.854Z,8.30
2023-04-06T10:28:47.391Z,6.40
2023-04-06T10:31:16.671Z,7.22
2023-04-06T10:33:59.371Z,7.43
2023-04-06T10:36:29.813Z,7.50
2023-04-06T10:39:04.065Z,8.40
2023-04-06T10:41:35.684Z,5.95
2023-04-06T10:44:03.839Z,6.95
2023-04-06T10:46:32.325Z,6.47
2023-04-06T10:49:00.210Z,6.28
2023-04-06T10:51:31.969Z,5.70
2023-04-06T10:53:59.353Z,6.18
2023-04-06T10:56:28.964Z,6.63
2023-04-06T10:58:57.592Z,5.15
2023-04-06T11:01:27.295Z,6.43
2023-04-06T11:03:57.018Z,5.60
2023-04-06T11:06:26.195Z,5.45
2023-04-06T11:08:53.897Z,6.28
2023-04-06T11:11:23.112Z,5.65
2023-04-06T11:13:53.680Z,5.30
2023-04-06T11:16:28.362Z,6.38
2023-04-06T11:19:00.514Z,6.07
2023-04-06T11:21:48.460Z,5.93
2023-04-06T11:24:25.390Z,6.07
2023-04-06T11:26:53.821Z,5.85
2023-04-06T11:29:27.475Z,6.20
2023-04-06T11:32:02.542Z,5.82
2023-04-06T11:34:31.113Z,5.40
2023-04-06T11:36:59.872Z,7.38
2023-04-06T11:39:29.085Z,5.35
2023-04-06T11:41:59.432Z,7.20
2023-04-06T11:44:37.730Z,6.05
2023-04-06T11:47:06.870Z,6.07
2023-04-06T11:49:37.998Z,6.55
2023-04-06T11:52:18.176Z,6.70
2023-04-06T11:54:45.729Z,6.57
2023-04-06T11:57:12.493Z,5.95
2023-04-06T11:59:39.651Z,5.63
2023-04-06T12:02:07.118Z,6.88
2023-04-06T12:04:34.356Z,6.32
2023-04-06T12:07:01.387Z,5.70
2023-04-06T12:09:28.253Z,7.32
2023-04-06T12:11:54.975Z,6.53
2023-04-06T12:14:21.829Z,5.28
2023-04-06T12:16:48.814Z,4.55
2023-04-06T12:19:15.657Z,6.47
2023-04-06T12:21:43.630Z,5.97
2023-04-06T12:24:15.062Z,6.35
2023-04-06T12:26:43.005Z,6.65
2023-04-06T12:29:10.244Z,6.28
2023-04-06T12:31:39.854Z,6.80
2023-04-06T12:34:07.194Z,6.75
2023-04-06T12:36:35.051Z,7.13
2023-04-06T12:39:04.245Z,6.20
2023-04-06T12:41:31.612Z,7.65
2023-04-06T12:44:00.334Z,7.05
2023-04-06T12:46:28.126Z,7.22
2023-04-06T12:48:56.074Z,6.20
2023-04-06T12:51:23.066Z,7.50
2023-04-06T12:53:50.257Z,7.32
2023-04-06T12:56:18.997Z,6.80
2023-04-06T12:58:49.171Z,6.40
2023-04-06T13:01:17.128Z,6.55
2023-04-06T13:03:44.587Z,6.05
2023-04-06T13:06:11.918Z,5.97
2023-04-06T13:08:39.910Z,6.25
2023-04-06T13:11:10.470Z,8.20
2023-04-06T13:13:37.835Z,6.28
2023-04-06T13:16:07.832Z,6.00
2023-04-06T13:18:35.741Z,5.90
2023-04-06T13:21:02.477Z,6.47
2023-04-06T13:23:29.586Z,6.32
2023-04-06T13:26:01.612Z,4.75
2023-04-06T13:28:28.990Z,5.55
2023-04-06T13:30:58.985Z,6.95
2023-04-06T13:33:26.110Z,5.38
2023-04-06T13:35:53.180Z,5.00
2023-04-06T13:38:19.976Z,6.78
2023-04-06T13:40:47.037Z,6.75
2023-04-06T13:43:14.434Z,5.22
2023-04-06T13:45:41.494Z,5.60
2023-04-06T13:48:11.321Z,5.57
2023-04-06T13:50:38.124Z,4.85
2023-04-06T13:53:06.048Z,6.20
2023-04-06T13:55:32.755Z,5.40
2023-04-06T13:57:59.545Z,5.88
2023-04-06T14:00:26.511Z,6.65
2023-04-06T14:02:56.474Z,5.88
2023-04-06T14:05:25.126Z,6.43
2023-04-06T14:07:54.287Z,7.07
2023-04-06T14:10:25.332Z,6.03
2023-04-06T14:12:53.617Z,6.35
2023-04-06T14:15:20.764Z,7.45
2023-04-06T14:17:47.590Z,6.57
2023-04-06T14:20:17.083Z,7.20
2023-04-06T14:22:44.292Z,8.07
2023-04-06T14:25:12.330Z,8.63
2023-04-06T14:27:39.619Z,6.57
2023-04-06T14:30:09.539Z,8.85
2023-04-06T14:32:37.893Z,6.50
2023-04-06T14:35:08.362Z,7.50
2023-04-06T14:37:36.338Z,7.72
2023-04-06T14:40:04.540Z,7.85
2023-04-06T14:42:31.434Z,7.85
2023-04-06T14:44:58.705Z,7.40
2023-04-06T14:47:25.649Z,6.97
2023-04-06T14:49:54.273Z,7.18
2023-04-06T14:52:21.391Z,6.85
2023-04-06T14:54:48.241Z,7.60
2023-04-06T14:57:15.434Z,6.85
2023-04-06T14:59:42.416Z,6.05
2023-04-06T15:02:09.309Z,6.30
2023-04-06T15:04:37.371Z,7.88
2023-04-06T15:07:04.632Z,5.80
2023-04-06T15:09:31.585Z,6.75
2023-04-06T15:11:59.112Z,6.22
2023-04-06T15:14:27.450Z,6.72
2023-04-06T15:16:54.251Z,6.28
2023-04-06T15:19:23.141Z,6.38
2023-04-06T15:21:50.316Z,6.55
2023-04-06T15:24:17.429Z,7.20
2023-04-06T15:26:46.508Z,7.65
2023-04-06T15:29:13.256Z,6.55
2023-04-06T15:31:48.800Z,6.47
2023-04-06T15:34:16.890Z,5.53
2023-04-06T15:36:45.107Z,6.88
2023-04-06T15:39:11.848Z,8.25
2023-04-06T15:41:39.022Z,6.13
2023-04-06T15:44:06.223Z,6.25
2023-04-06T15:46:33.368Z,6.30
2023-04-06T15:49:00.278Z,6.10
2023-04-06T15:51:28.000Z,5.72
2023-04-06T15:53:54.774Z,6.07
2023-04-06T15:56:21.974Z,5.07
2023-04-06T15:58:50.964Z,6.05
2023-04-06T16:01:19.739Z,6.90
2023-04-06T16:03:46.758Z,6.63
2023-04-06T16:06:14.088Z,5.57
2023-04-06T16:08:41.376Z,6.45
2023-04-06T16:11:08.894Z,6.68
2023-04-06T16:13:43.114Z,5.88
2023-04-06T16:16:11.857Z,7.03
2023-04-06T16:18:38.634Z,6.18
2023-04-06T16:21:05.615Z,7.00
2023-04-06T16:23:32.835Z,5.60
2023-04-06T16:26:00.125Z,6.47
2023-04-06T16:28:27.904Z,6.13
2023-04-06T16:30:54.700Z,6.97
2023-04-06T16:33:23.658Z,5.97
2023-04-06T16:35:51.219Z,6.28
2023-04-06T16:38:17.983Z,7.82
2023-04-06T16:40:45.223Z,6.28
2023-04-06T16:43:12.009Z,6.80
2023-04-06T16:45:39.730Z,6.63
2023-04-06T16:48:06.803Z,7.30
2023-04-06T16:50:33.650Z,6.75
2023-04-06T16:53:02.604Z,6.80
2023-04-06T16:55:29.373Z,6.40
2023-04-06T16:57:56.924Z,6.22
2023-04-06T17:00:24.171Z,7.70
2023-04-06T17:02:51.134Z,6.10
2023-04-06T17:05:25.128Z,6.72
2023-04-06T17:07:52.137Z,8.15
2023-04-06T17:10:24.249Z,6.85
2023-04-06T17:13:00.293Z,7.32
2023-04-06T17:15:28.682Z,7.05
2023-04-06T17:17:55.523Z,7.05
2023-04-06T17:20:22.863Z,6.95
2023-04-06T17:22:49.749Z,8.00
2023-04-06T17:25:17.212Z,8.73
2023-04-06T17:27:44.697Z,6.43
2023-04-06T17:30:13.169Z,8.68
2023-04-06T17:32:42.073Z,8.73
2023-04-06T17:35:12.051Z,7.25
2023-04-06T17:37:39.477Z,7.45
2023-04-06T17:40:07.368Z,6.35
2023-04-06T17:42:34.203Z,8.05
2023-04-06T17:45:01.557Z,8.32
2023-04-06T17:47:32.290Z,8.90
2023-04-06T17:50:00.261Z,8.65
2023-04-06T17:52:28.324Z,7.93
2023-04-06T17:54:55.801Z,8.05
2023-04-06T17:57:22.625Z,8.63
2023-04-06T17:59:49.764Z,9.25
2023-04-06T18:02:20.500Z,6.63
2023-04-06T18:04:47.849Z,7.35
2023-04-06T18:07:14.906Z,7.43
2023-04-06T18:09:47.394Z,7.50
2023-04-06T18:12:14.687Z,8.05
2023-04-06T18:14:42.834Z,7.85
2023-04-06T18:17:10.436Z,7.65
2023-04-06T18:19:37.826Z,9.38
2023-04-06T18:22:04.621Z,7.10
2023-04-06T18:24:42.181Z,8.60
2023-04-06T18:27:11.339Z,8.60
2023-04-06T18:29:47.802Z,8.60
2023-04-06T18:32:19.736Z,8.77
2023-04-06T18:34:47.710Z,8.60
2023-04-06T18:37:19.813Z,7.97
2023-04-06T18:39:47.045Z,8.50
2023-04-06T18:42:16.627Z,8.93
2023-04-06T18:44:57.109Z,7.63
2023-04-06T18:47:26.024Z,8.48
2023-04-06T18:50:00.141Z,9.00
2023-04-06T18:52:36.380Z,8.38
2023-04-06T18:55:07.124Z,7.93
2023-04-06T18:57:34.970Z,10.20
2023-04-06T19:00:09.771Z,7.45
2023-04-06T19:02:36.885Z,9.43
2023-04-06T19:05:10.721Z,9.43
2023-04-06T19:07:38.343Z,10.20
2023-04-06T19:10:08.218Z,8.57
2023-04-06T19:12:39.623Z,8.60
2023-04-06T19:15:08.406Z,8.48
2023-04-06T19:17:36.102Z,8.98
2023-04-06T19:20:11.658Z,9.63
2023-04-06T19:22:42.066Z,9.13
2023-04-06T19:25:14.252Z,9.88
2023-04-06T19:27:41.422Z,9.27
2023-04-06T19:30:10.854Z,9.18
2023-04-06T19:32:42.340Z,9.88
2023-04-06T19:35:09.762Z,10.90
2023-04-06T19:37:39.056Z,11.15
2023-04-06T19:40:11.049Z,9.38
2023-04-06T19:42:39.956Z,9.15
2023-04-06T19:45:07.472Z,11.15
2023-04-06T19:47:38.731Z,10.70
2023-04-06T19:50:11.225Z,9.82
2023-04-06T19:52:52.860Z,10.48
2023-04-06T19:55:20.916Z,11.90
2023-04-06T19:57:48.428Z,12.05
2023-04-06T20:00:16.360Z,10.30
2023-04-06T20:02:44.363Z,11.18
2023-04-06T20:05:11.251Z,11.85
2023-04-06T20:10:20.446Z,13.90
2023-04-06T20:12:50.498Z,12.00
2023-04-06T20:15:18.974Z,13.27
2023-04-06T20:17:46.126Z,13.45
2023-04-06T20:20:12.963Z,11.57
2023-04-06T20:22:41.021Z,13.63
2023-04-06T20:25:12.190Z,13.00
2023-04-06T20:27:38.999Z,12.23
2023-04-06T20:30:06.838Z,11.85
2023-04-06T20:32:36.545Z,11.88
2023-04-06T20:35:05.484Z,13.55
2023-04-06T20:37:33.431Z,12.38
2023-04-06T20:40:01.642Z,12.68
2023-04-06T20:42:30.081Z,11.85
2023-04-06T20:44:57.844Z,11.10
2023-04-06T20:47:24.637Z,12.32
2023-04-06T20:49:52.032Z,11.75
2023-04-06T20:52:18.909Z,12.52
2023-04-06T20:54:48.657Z,11.00
2023-04-06T20:57:15.786Z,11.40
2023-04-06T20:59:43.357Z,12.07
2023-04-06T21:02:10.411Z,11.15
2023-04-06T21:04:37.702Z,12.18
2023-04-06T21:07:08.342Z,11.68
2023-04-06T21:09:36.675Z,10.88
2023-04-06T21:12:09.838Z,11.20
2023-04-06T21:14:37.588Z,10.75
2023-04-06T21:17:04.594Z,11.80
2023-04-06T21:19:31.661Z,9.88
2023-04-06T21:21:58.885Z,10.00
2023-04-06T21:24:27.616Z,12.05
2023-04-06T21:26:54.894Z,9.32
2023-04-06T21:29:21.745Z,11.60
2023-04-06T21:31:48.966Z,9.35
2023-04-06T21:34:32.887Z,10.68
2023-04-06T21:36:59.741Z,10.70
2023-04-06T21:39:27.065Z,11.38
2023-04-06T21:41:55.350Z,11.10
2023-04-06T21:44:22.162Z,11.02
2023-04-06T21:46:48.985Z,11.35
2023-04-06T21:49:16.210Z,11.38
2023-04-06T21:51:42.976Z,10.40
2023-04-06T21:54:09.795Z,11.65
2023-04-06T21:56:36.527Z,11.35
2023-04-06T21:59:03.948Z,10.20
2023-04-06T22:01:31.197Z,11.82
2023-04-06T22:03:58.675Z,12.05
2023-04-06T22:06:32.121Z,11.55
2023-04-06T22:09:00.967Z,11.55
2023-04-06T22:11:27.992Z,10.45
2023-04-06T22:13:57.301Z,13.20
2023-04-06T22:16:25.693Z,12.23
2023-04-06T22:18:56.658Z,12.60
2023-04-06T22:21:23.634Z,11.23
2023-04-06T22:23:51.630Z,11.40
2023-04-06T22:26:18.936Z,11.50
2023-04-06T22:28:57.868Z,12.68
2023-04-06T22:31:25.096Z,12.60
2023-04-06T22:33:54.939Z,12.60
2023-04-06T22:36:22.225Z,12.00
2023-04-06T22:38:51.002Z,12.13
2023-04-06T22:41:18.085Z,13.02
2023-04-06T22:43:44.943Z,12.63
2023-04-06T22:46:15.003Z,12.50
2023-04-06T22:48:41.839Z,13.82
2023-04-06T22:51:09.100Z,11.75
2023-04-06T22:53:36.242Z,12.43
2023-04-06T22:56:03.408Z,12.70
2023-04-06T22:58:30.348Z,13.10
2023-04-06T23:00:57.610Z,13.18
2023-04-06T23:03:24.525Z,12.63
2023-04-06T23:05:54.796Z,13.50
2023-04-06T23:08:25.795Z,14.13
2023-04-06T23:10:55.873Z,15.05
2023-04-06T23:13:25.301Z,12.80
2023-04-06T23:15:57.463Z,15.13
2023-04-06T23:18:26.441Z,14.68
2023-04-06T23:23:12.152Z,13.85
2023-04-06T23:24:27.986Z,12.52
2023-04-06T23:26:54.765Z,13.35
2023-04-06T23:29:21.945Z,13.48
2023-04-06T23:31:48.989Z,13.00
2023-04-06T23:34:15.774Z,14.45
2023-04-06T23:36:42.831Z,12.40
2023-04-06T23:39:09.946Z,12.63
2023-04-06T23:41:36.753Z,14.45
2023-04-06T23:44:03.816Z,12.20
2023-04-06T23:46:30.643Z,13.63
2023-04-06T23:48:57.490Z,13.70
2023-04-06T23:51:24.295Z,13.75
2023-04-06T23:53:51.384Z,13.60
2023-04-06T23:56:18.147Z,13.75
2023-04-06T23:58:45.240Z,12.85
